Filip Majer

Recruteur - Dinamo Zagreb
20 Nov 2027
Samedi
Processus

Personnalité

Adaptabilité (18) Ambition (4) Controverse (1) Loyauté (16) Pression (11) Professionnalisme (11) Sportivité (1) Tempérament (9)

Profil

Style d'entraînement Démocratique
Diplôme Continental Pro
Détermination 8
Gestion des joueurs 7
Motivation 11
Discipline 14
Satisfaction professionnelle
80%
Fatigue
0%
Rôle Recruteur
Salaire 30.7K p/s
Contrat 14.03.2030

Performance

Comportement Bon
Efficacité de l'entraînement
31%
Développement des joueurs
50%
Prévention des blessures
50%
Mise en place tactique
40%

Événements récents

A participé à une réunion de recrutement maintenant
A recommandé une cible de transfert maintenant
A recommandé une cible de transfert maintenant
A participé à une réunion de recrutement 7j
A recommandé une cible de transfert 7j
A recommandé une cible de transfert 7j
A recommandé une cible de transfert 7j
A recommandé une cible de transfert 7j

Suivi en cours

49
Joueur Club Statut Capacité Confiance Observé Dernière observation Dernier vote
Niko Janković HNK Rijeka Actif 114 / 120 69% 1 28.06.2027 Approuver
Vinko Rozić Istra 1961 Actif 112 / 117 69% 1 07.01.2027 Approuver
Kristijan Lovrić Rudes Actif 110 / 100 69% 1 01.01.2027 Approuver
Filip Stanković Venezia Actif 132 / 124 40% 1 01.01.2027 -
Fernando Tapia Club America Actif 138 / 131 40% 1 01.01.2027 -
Wendel Zenit Actif 147 / 136 40% 4 31.12.2026 -
Oscar Al-Taawoun Actif 145 / 132 40% 1 31.12.2026 -
Álex Valle Como Actif 135 / 133 40% 1 31.12.2026 -
Rúben Neves Al-Hilal Actif 160 / 146 40% 2 27.12.2026 -
Mitchel Bakker Rostov Perdu 135 / 133 40% 1 27.12.2026 -
Petar Sučić Inter Actif 140 / 139 40% 7 18.12.2026 -
Ciro De Angelis Siah Jamegan Perdu 135 / 114 40% 2 18.12.2026 -
Diego Costa Krasnodar Actif 134 / 132 40% 1 18.12.2026 -
Fabian Rieder FC Augsburg Actif 133 / 134 40% 1 14.12.2026 -
Alexandr Chernikov Krasnodar Actif 129 / 126 40% 4 11.12.2026 -
Oleksandr Pikhalionok Dynamo Kyiv Actif 123 / 123 40% 1 08.12.2026 -
Gustavo Mantuan Zenit Actif 141 / 135 40% 4 05.12.2026 -
Morten Frendrup Genoa Actif 145 / 147 40% 2 05.12.2026 -
Nino Zenit Actif 137 / 148 40% 2 04.12.2026 -
Gedson Fernandes Spartak Moscow Actif 141 / 141 40% 4 04.12.2026 -
Mohamed Ali Ben Romdhane Al Ahly Actif 119 / 127 40% 2 30.11.2026 -
Szabolcs Szoboszlai Haladas Actif 136 / 127 40% 1 30.11.2026 -
Adrian Dragusin CFR Cluj Actif 139 / 143 40% 5 28.11.2026 -
Jaime Seoane Al-Faisaly Actif 141 / 140 40% 1 24.11.2026 -
Dion Lopy Al-Ittihad Actif 125 / 121 40% 1 20.11.2026 -
Volodymyr Brazhko Dynamo Kyiv Actif 128 / 125 40% 1 17.11.2026 -
Kady Borges Qarabag Actif 127 / 135 40% 2 05.11.2026 -
Andreas Hanche-Olsen Chicago Fire Actif 143 / 133 40% 3 29.10.2026 -
Yves Bissouma Tottenham Actif 137 / 142 40% 1 27.10.2026 -
Ivan Smolčić Como Actif 126 / 121 40% 1 26.10.2026 -
Théo Hernández Al-Hilal Actif 160 / 146 40% 1 26.10.2026 -
Fredrik Bjørkan Bodo/Glimt Actif 122 / 134 40% 1 23.10.2026 -
Danil Glebov Dinamo Moscow Actif 130 / 125 40% 2 06.10.2026 -
Ivan Oblyakov CSKA Moscow Actif 135 / 128 40% 1 06.10.2026 -
Musab Al-Juwayr Al-Qadisiyah Actif 120 / 124 40% 2 05.10.2026 -
Christian Krasnodar Actif 136 / 135 40% 1 01.10.2026 -
Niklas Dorsch Toronto FC Actif 124 / 138 40% 1 30.09.2026 -
Mihailo Ristić Crvena Zvezda Actif 138 / 129 40% 1 29.09.2026 -
Odin Bjørtuft Bodo/Glimt Actif 131 / 142 40% 1 29.09.2026 -
Marcel Hartel St. Louis CITY SC Actif 123 / 140 40% 1 14.09.2026 -
Sergio Reguilón Inter Miami CF Actif 130 / 137 40% 2 12.09.2026 -
Alex Král FC Copenhagen Actif 117 / 114 40% 1 12.09.2026 -
Mbekezeli Mbokazi Chicago Fire Actif 110 / 115 40% 1 09.09.2026 -
Domagoj Bukvić NK Osijek Actif 112 / 117 69% 1 31.08.2026 Approuver
Azzedine Ounahi Panathinaikos Actif 139 / 145 40% 1 24.08.2026 -
Mauricio Amaro Atlanta United FC Actif 116 / 135 40% 1 17.08.2026 -
Arnaud Bodart LOSC Lille Actif 122 / 133 40% 1 03.08.2026 -
Nikola Vlašić Torino Actif 148 / 145 40% 1 02.08.2026 -
Karl Hein Werder Bremen Actif 128 / 124 40% 1 02.08.2026 -